Time;durP1;ratioP1;P1;durP2;ratioP2;P2;SDS_P1;SDS_P2;PMS_P1;PMS_P2;Temp;Humidity;BMP_temperature;BMP_pressure;BME280_temperature;BME280_humidity;BME280_pressure;Samples;Min_cycle;Max_cycle;Signal;HPM_P1;HPM_P2
2022/09/15 00:01:32;;;;;;;5.45;1.50;;;19.60;99.90;;;;;;6264105;28;20045;-80
2022/09/15 00:04:35;;;;;;;3.72;1.63;;;19.60;99.90;;;;;;6284132;28;20053;-80
2022/09/15 00:07:37;;;;;;;2.92;1.40;;;19.60;99.90;;;;;;6283083;28;20048;-80
2022/09/15 00:10:39;;;;;;;5.68;1.52;;;19.50;99.90;;;;;;6282833;28;20114;-81
2022/09/15 00:13:42;;;;;;;7.45;1.48;;;19.60;99.90;;;;;;6272340;28;20056;-79
2022/09/15 00:16:43;;;;;;;3.53;1.35;;;19.70;99.90;;;;;;6234473;28;20104;-80
2022/09/15 00:19:46;;;;;;;6.07;1.42;;;19.70;99.90;;;;;;6231689;28;20052;-79
2022/09/15 00:22:49;;;;;;;5.47;1.58;;;19.60;99.90;;;;;;6230692;28;20053;-80
2022/09/15 00:25:52;;;;;;;9.25;1.60;;;19.60;99.90;;;;;;6230163;28;20049;-79
2022/09/15 00:28:55;;;;;;;3.75;1.60;;;19.50;99.90;;;;;;6231408;28;20061;-80
2022/09/15 00:31:57;;;;;;;4.07;1.63;;;19.40;99.90;;;;;;6230455;28;20041;-80
2022/09/15 00:35:00;;;;;;;4.88;1.30;;;19.60;99.90;;;;;;6230580;28;20049;-80
2022/09/15 00:38:02;;;;;;;7.70;1.60;;;19.60;99.90;;;;;;6231528;28;20046;-80
2022/09/15 00:41:05;;;;;;;6.32;1.98;;;19.50;99.90;;;;;;6232859;28;20048;-81
2022/09/15 00:44:46;;;;;;;3.83;1.42;;;19.50;99.90;;;;;;6231407;28;20050;-80
2022/09/15 00:47:48;;;;;;;4.05;1.38;;;19.50;99.90;;;;;;6230861;28;20050;-80
2022/09/15 00:50:55;;;;;;;5.88;1.50;;;19.50;99.90;;;;;;6252483;28;20041;-79
2022/09/15 00:54:00;;;;;;;2.00;1.10;;;19.50;99.90;;;;;;6252924;28;20204;-79
2022/09/15 00:57:05;;;;;;;2.90;1.38;;;19.40;99.90;;;;;;6282466;28;20056;-80
2022/09/15 01:00:10;;;;;;;3.88;1.33;;;19.40;99.90;;;;;;6280770;28;20061;-78
2022/09/15 01:03:12;;;;;;;2.70;1.50;;;19.30;99.90;;;;;;6282338;28;20065;-80
2022/09/15 01:06:19;;;;;;;4.53;1.50;;;19.20;99.90;;;;;;6280189;28;20041;-80
2022/09/15 01:09:35;;;;;;;2.83;1.00;;;19.20;99.90;;;;;;6280766;28;20045;-80
2022/09/15 01:12:37;;;;;;;5.68;1.77;;;19.30;99.90;;;;;;6282501;28;20120;-80
2022/09/15 01:15:47;;;;;;;2.35;1.35;;;19.30;99.90;;;;;;6255931;28;20048;-80
2022/09/15 01:18:58;;;;;;;6.25;1.45;;;19.20;99.90;;;;;;6255657;28;20063;-80
2022/09/15 01:22:13;;;;;;;1.85;1.02;;;19.30;99.90;;;;;;6255774;28;20124;-80
2022/09/15 01:25:28;;;;;;;4.05;1.30;;;19.30;99.90;;;;;;6254887;28;20055;-80
2022/09/15 01:28:48;;;;;;;2.58;1.25;;;19.30;99.90;;;;;;6255941;28;20056;-80
2022/09/15 01:35:27;;;;;;;5.78;1.13;;;19.30;99.90;;;;;;6255092;28;20105;-80
2022/09/15 01:38:41;;;;;;;2.45;1.50;;;19.30;99.90;;;;;;6255808;28;20056;-80
2022/09/15 01:41:47;;;;;;;2.25;1.27;;;19.30;99.90;;;;;;6256976;28;20052;-80
2022/09/15 01:44:55;;;;;;;7.35;1.23;;;19.40;99.90;;;;;;6257771;28;20164;-79
2022/09/15 01:48:00;;;;;;;2.65;1.30;;;19.40;99.90;;;;;;6255156;28;20066;-80
2022/09/15 01:51:03;;;;;;;4.50;1.83;;;19.40;99.90;;;;;;6253047;28;20042;-79
2022/09/15 01:54:06;;;;;;;2.20;1.23;;;19.40;99.90;;;;;;6252177;28;20041;-79
2022/09/15 01:57:08;;;;;;;9.05;1.85;;;19.40;99.90;;;;;;6252894;28;20060;-80
2022/09/15 02:00:11;;;;;;;7.28;1.60;;;19.50;99.90;;;;;;6253782;28;20466;-80
2022/09/15 02:03:20;;;;;;;4.53;1.17;;;19.50;99.90;;;;;;6253306;28;20059;-79
2022/09/15 02:06:35;;;;;;;3.05;2.53;;;19.50;99.90;;;;;;6253783;28;20056;-79
2022/09/15 02:09:43;;;;;;;7.90;2.15;;;19.60;99.90;;;;;;6254403;28;20053;-80
2022/09/15 02:12:46;;;;;;;;;;;19.60;99.90;;;;;;6254823;28;20053;-80
2022/09/15 02:15:52;;;;;;;5.40;1.52;;;19.60;99.90;;;;;;6254038;28;20374;-82
2022/09/15 02:19:07;;;;;;;9.75;3.30;;;19.60;99.90;;;;;;6231515;28;20049;-81
2022/09/15 02:22:14;;;;;;;6.60;1.33;;;19.70;99.90;;;;;;6229030;28;20049;-81
2022/09/15 02:25:20;;;;;;;2.50;1.42;;;19.60;99.90;;;;;;6230409;28;20049;-77
2022/09/15 02:28:26;;;;;;;1.77;1.08;;;19.60;99.90;;;;;;6231561;28;20683;-77
2022/09/15 02:31:30;;;;;;;1.45;0.77;;;19.70;99.90;;;;;;6230329;28;20042;-79
2022/09/15 02:34:37;;;;;;;3.05;1.45;;;19.60;99.90;;;;;;6231380;28;20046;-81
2022/09/15 02:37:38;;;;;;;8.00;1.27;;;19.60;99.90;;;;;;6230157;28;20052;-78
2022/09/15 02:40:42;;;;;;;5.22;1.48;;;19.70;99.90;;;;;;6229820;28;20476;-78
2022/09/15 02:43:45;;;;;;;3.05;0.93;;;19.70;99.90;;;;;;6231015;28;20050;-78
2022/09/15 02:46:47;;;;;;;4.85;1.05;;;19.70;99.90;;;;;;6229972;28;20049;-78
2022/09/15 02:49:50;;;;;;;3.40;1.30;;;19.70;99.90;;;;;;6230495;28;20049;-81
2022/09/15 02:52:52;;;;;;;3.63;0.98;;;19.70;99.90;;;;;;6231729;28;20049;-79
2022/09/15 02:55:54;;;;;;;7.50;1.27;;;19.70;99.90;;;;;;6231381;28;20050;-79
2022/09/15 02:58:55;;;;;;;3.80;0.98;;;19.70;99.90;;;;;;6232795;28;20512;-78
2022/09/15 03:01:57;;;;;;;5.97;1.10;;;19.70;99.90;;;;;;6271581;28;20052;-79
2022/09/15 03:05:00;;;;;;;3.83;0.77;;;19.70;99.90;;;;;;6281792;28;20510;-80
2022/09/15 03:08:02;;;;;;;3.95;0.85;;;19.70;99.90;;;;;;6279914;28;20048;-79
2022/09/15 03:11:05;;;;;;;1.33;0.70;;;19.70;99.90;;;;;;6279353;28;20045;-79
2022/09/15 03:14:07;;;;;;;3.53;0.90;;;19.70;99.90;;;;;;6282677;28;20060;-79
2022/09/15 03:17:08;;;;;;;4.95;1.33;;;19.70;99.90;;;;;;6275991;28;20507;-79
2022/09/15 03:20:14;;;;;;;2.38;0.70;;;19.80;99.90;;;;;;6259195;28;20064;-79
2022/09/15 03:23:16;;;;;;;5.85;0.80;;;19.80;99.90;;;;;;6261049;28;20054;-78
2022/09/15 03:26:18;;;;;;;4.78;1.48;;;19.80;99.90;;;;;;6258950;28;20045;-80
2022/09/15 03:29:19;;;;;;;4.45;1.10;;;19.80;99.90;;;;;;6257285;28;20585;-80
2022/09/15 03:32:21;;;;;;;6.47;0.90;;;19.80;99.90;;;;;;6258295;28;20046;-81
2022/09/15 03:35:24;;;;;;;2.42;0.63;;;19.80;99.90;;;;;;6257851;28;20049;-80
2022/09/15 03:38:26;;;;;;;1.15;0.60;;;19.80;99.90;;;;;;6257791;28;20050;-80
2022/09/15 03:41:28;;;;;;;3.30;0.95;;;19.90;99.90;;;;;;6259413;28;20052;-79
2022/09/15 03:44:30;;;;;;;2.70;0.43;;;19.90;99.90;;;;;;6261080;28;20113;-79
2022/09/15 03:47:32;;;;;;;2.80;0.60;;;19.90;99.90;;;;;;6260191;28;20050;-79
2022/09/15 03:50:35;;;;;;;11.40;1.00;;;20.00;99.90;;;;;;6260530;28;20049;-79
2022/09/15 03:53:38;;;;;;;2.22;0.90;;;20.00;99.90;;;;;;6261532;28;20061;-79
2022/09/15 03:56:39;;;;;;;1.52;0.85;;;20.00;99.90;;;;;;6265013;28;20061;-79
2022/09/15 03:59:41;;;;;;;4.10;0.73;;;20.00;99.90;;;;;;6263712;28;20052;-79
2022/09/15 04:02:43;;;;;;;5.85;1.17;;;20.00;99.90;;;;;;6263585;28;20059;-79
2022/09/15 04:05:46;;;;;;;3.97;0.63;;;19.90;99.90;;;;;;6264190;28;20100;-79
2022/09/15 04:08:48;;;;;;;1.10;0.55;;;20.00;99.90;;;;;;6264912;28;20050;-79
2022/09/15 04:11:50;;;;;;;5.78;0.88;;;20.00;99.90;;;;;;6262995;28;20041;-79
2022/09/15 04:14:52;;;;;;;3.80;0.73;;;19.90;99.90;;;;;;6264658;28;20049;-79
2022/09/15 04:17:54;;;;;;;5.10;0.80;;;19.90;99.90;;;;;;6260066;28;20058;-80
2022/09/15 04:21:01;;;;;;;3.13;0.63;;;19.90;99.90;;;;;;6241124;28;20052;-78
2022/09/15 04:24:04;;;;;;;2.33;0.80;;;19.90;99.90;;;;;;6239464;28;20046;-79
2022/09/15 04:27:06;;;;;;;3.08;0.80;;;19.90;99.90;;;;;;6278108;22;20132;-83
2022/09/15 04:30:09;;;;;;;5.28;1.25;;;19.90;99.90;;;;;;6286811;28;20048;-82
2022/09/15 04:33:11;;;;;;;6.63;1.13;;;19.90;99.90;;;;;;6285719;28;20045;-85
2022/09/15 04:36:15;;;;;;;3.95;0.85;;;19.90;99.90;;;;;;6285180;28;20060;-85
2022/09/15 04:39:18;;;;;;;4.10;1.15;;;19.80;99.90;;;;;;6284304;28;20044;-84
2022/09/15 04:42:20;;;;;;;4.03;1.40;;;19.80;99.90;;;;;;6283638;28;20533;-84
2022/09/15 04:45:22;;;;;;;1.88;0.93;;;19.70;99.90;;;;;;6283917;28;20102;-84
2022/09/15 04:48:24;;;;;;;4.25;1.10;;;19.70;99.90;;;;;;6284381;28;20392;-84
2022/09/15 04:51:27;;;;;;;6.53;1.67;;;19.80;99.90;;;;;;6281988;28;20044;-84
2022/09/15 04:54:28;;;;;;;7.10;1.00;;;19.70;99.90;;;;;;6283963;28;20045;-84
2022/09/15 04:57:30;;;;;;;3.38;1.13;;;19.70;99.90;;;;;;6282364;28;20041;-84
2022/09/15 05:00:40;;;;;;;3.05;1.25;;;19.50;99.90;;;;;;6283285;28;20065;-84
2022/09/15 05:03:43;;;;;;;1.80;1.20;;;19.50;99.90;;;;;;6282958;28;20559;-85
2022/09/15 05:06:46;;;;;;;0.93;0.65;;;19.40;99.90;;;;;;6282130;28;20048;-84
2022/09/15 05:09:47;;;;;;;2.70;1.33;;;19.40;99.90;;;;;;6281238;28;20047;-84
2022/09/15 05:12:49;;;;;;;6.78;1.10;;;19.30;99.90;;;;;;6281103;28;20414;-84
2022/09/15 05:15:51;;;;;;;8.38;1.10;;;19.30;99.90;;;;;;6280756;28;20506;-83
2022/09/15 05:18:54;;;;;;;1.77;1.10;;;19.30;99.90;;;;;;6274332;28;20371;-83
2022/09/15 05:21:57;;;;;;;2.38;1.50;;;19.20;99.90;;;;;;6256373;28;20049;-83
2022/09/15 05:24:59;;;;;;;2.20;1.00;;;19.40;99.90;;;;;;6255341;28;20049;-83
2022/09/15 05:28:01;;;;;;;4.40;1.30;;;19.40;99.90;;;;;;6254417;28;20060;-85
2022/09/15 05:31:08;;;;;;;4.38;1.55;;;19.40;99.90;;;;;;6254282;28;20042;-83
2022/09/15 05:34:10;;;;;;;7.07;1.27;;;19.40;99.90;;;;;;6257063;28;20859;-84
2022/09/15 05:37:13;;;;;;;4.28;1.40;;;19.40;99.90;;;;;;6255624;28;20315;-85
2022/09/15 05:40:15;;;;;;;6.10;1.77;;;19.30;99.90;;;;;;6256647;28;20049;-83
2022/09/15 05:43:17;;;;;;;5.30;1.58;;;19.40;99.90;;;;;;6256367;28;20060;-84
2022/09/15 05:46:20;;;;;;;4.97;1.90;;;19.30;99.90;;;;;;6256343;28;20046;-84
2022/09/15 05:49:22;;;;;;;2.67;1.70;;;19.30;99.90;;;;;;6256298;28;20056;-84
2022/09/15 05:52:25;;;;;;;3.97;1.45;;;19.40;99.90;;;;;;6256827;28;20096;-84
2022/09/15 05:55:27;;;;;;;6.07;2.80;;;19.40;99.90;;;;;;6257126;28;20053;-84
2022/09/15 05:58:29;;;;;;;5.35;1.92;;;19.30;99.90;;;;;;6257223;28;20136;-84
2022/09/15 06:01:31;;;;;;;3.55;1.90;;;19.30;99.90;;;;;;6256711;28;20045;-84
2022/09/15 06:04:33;;;;;;;5.97;1.95;;;19.30;99.90;;;;;;6257439;28;20138;-83
2022/09/15 06:07:37;;;;;;;5.05;2.38;;;19.30;99.90;;;;;;6257418;28;20056;-84
2022/09/15 06:10:39;;;;;;;5.00;1.90;;;19.40;99.90;;;;;;6258504;28;20053;-84
2022/09/15 06:13:42;;;;;;;12.25;5.00;;;19.30;99.90;;;;;;6257110;28;20046;-84
2022/09/15 06:16:44;;;;;;;11.80;3.55;;;19.30;99.90;;;;;;6257781;28;20053;-84
2022/09/15 06:19:46;;;;;;;3.33;1.98;;;19.30;99.90;;;;;;6251111;28;20063;-84
2022/09/15 06:22:49;;;;;;;3.25;1.75;;;19.30;99.90;;;;;;6232199;28;20407;-83
2022/09/15 06:25:51;;;;;;;4.03;1.60;;;19.30;99.90;;;;;;6232988;28;20046;-84
2022/09/15 06:28:54;;;;;;;4.03;1.83;;;19.30;99.90;;;;;;6232511;28;20050;-83
2022/09/15 06:32:01;;;;;;;2.25;1.38;;;19.30;99.90;;;;;;6231713;28;20125;-84
2022/09/15 06:35:06;;;;;;;3.88;1.98;;;19.30;99.90;;;;;;6233124;28;20052;-84
2022/09/15 06:38:08;;;;;;;5.15;2.15;;;19.20;99.90;;;;;;6231884;28;20042;-84
2022/09/15 06:41:11;;;;;;;4.07;1.67;;;19.30;99.90;;;;;;6231766;28;20057;-84
2022/09/15 06:44:13;;;;;;;4.15;1.33;;;19.30;99.90;;;;;;6233733;28;20056;-85
2022/09/15 06:47:15;;;;;;;4.53;2.10;;;19.30;99.90;;;;;;6234808;28;20046;-82
2022/09/15 06:50:17;;;;;;;1.52;1.17;;;19.30;99.90;;;;;;6237778;28;20050;-83
2022/09/15 06:53:20;;;;;;;5.63;1.55;;;19.20;99.90;;;;;;6237391;28;20045;-82
2022/09/15 06:56:23;;;;;;;4.80;1.80;;;19.30;99.90;;;;;;6238914;28;20125;-84
2022/09/15 06:59:25;;;;;;;2.55;1.15;;;19.30;99.90;;;;;;6251139;28;20042;-83
2022/09/15 07:02:26;;;;;;;4.25;1.83;;;19.30;99.90;;;;;;6217788;28;20084;-83
2022/09/15 07:05:29;;;;;;;3.75;1.52;;;19.40;99.90;;;;;;6255403;28;20117;-83
2022/09/15 07:08:59;;;;;;;3.53;1.30;;;19.20;99.90;;;;;;6258914;28;20049;-87
2022/09/15 07:12:04;;;;;;;3.65;1.20;;;19.10;99.90;;;;;;6242461;28;20192;-85
2022/09/15 07:15:07;;;;;;;7.57;1.67;;;19.00;99.90;;;;;;6233324;28;20053;-86
2022/09/15 07:18:09;;;;;;;4.57;2.08;;;19.00;99.90;;;;;;6226648;28;20042;-86
2022/09/15 07:21:16;;;;;;;9.23;1.55;;;19.00;99.90;;;;;;6225047;28;20049;-87
2022/09/15 07:24:19;;;;;;;2.40;1.45;;;19.00;99.90;;;;;;6230040;28;20077;-86
2022/09/15 07:27:25;;;;;;;8.25;1.85;;;19.00;99.90;;;;;;6228916;28;20152;-85
2022/09/15 07:30:26;;;;;;;9.13;2.00;;;19.00;99.90;;;;;;6229283;28;20068;-86
2022/09/15 07:33:28;;;;;;;2.97;1.50;;;19.00;99.90;;;;;;6230119;28;20041;-88
2022/09/15 07:36:34;;;;;;;4.97;1.80;;;19.00;99.90;;;;;;6240137;28;20132;-88
2022/09/15 07:39:37;;;;;;;7.15;2.92;;;19.00;99.90;;;;;;6271923;28;20426;-87
2022/09/15 07:42:42;;;;;;;9.43;3.97;;;19.10;99.90;;;;;;6284444;28;20064;-87
2022/09/15 07:45:44;;;;;;;11.77;4.10;;;18.80;99.90;;;;;;6306439;28;20040;-87
2022/09/15 07:48:47;;;;;;;24.27;13.48;;;18.50;99.90;;;;;;6288026;28;20397;-87
2022/09/15 07:51:49;;;;;;;12.93;4.93;;;18.20;99.90;;;;;;6275728;28;20502;-89
2022/09/15 07:54:52;;;;;;;16.35;5.38;;;17.90;99.90;;;;;;6274988;28;20045;-89
2022/09/15 07:57:57;;;;;;;13.00;5.95;;;17.60;99.90;;;;;;6276688;28;20415;-88
2022/09/15 08:01:02;;;;;;;20.05;7.82;;;17.40;99.90;;;;;;6242119;28;20053;-88
2022/09/15 08:04:15;;;;;;;21.08;7.80;;;17.30;99.90;;;;;;6232918;28;20061;-89
2022/09/15 08:07:17;;;;;;;18.10;7.07;;;17.10;99.90;;;;;;6263810;28;20065;-89
2022/09/15 08:10:20;;;;;;;13.95;5.93;;;17.00;99.90;;;;;;6242242;28;20064;-90
2022/09/15 08:13:23;;;;;;;19.25;6.75;;;16.90;99.90;;;;;;6242733;28;20033;-87
2022/09/15 08:16:34;;;;;;;17.58;6.57;;;16.80;99.90;;;;;;6241855;28;20054;-90
2022/09/15 08:19:36;;;;;;;14.85;5.70;;;16.70;99.90;;;;;;6225720;28;20065;-88
2022/09/15 08:22:38;;;;;;;15.00;5.18;;;16.70;99.90;;;;;;6227110;28;20382;-87
2022/09/15 08:25:41;;;;;;;14.57;6.30;;;16.60;99.90;;;;;;6227890;28;20049;-89
2022/09/15 08:28:43;;;;;;;11.35;5.38;;;16.70;99.90;;;;;;6226123;28;20053;-88
2022/09/15 08:31:45;;;;;;;12.07;4.75;;;16.80;99.90;;;;;;6225886;28;20053;-86
2022/09/15 08:34:46;;;;;;;16.65;5.30;;;16.80;99.90;;;;;;6225078;28;20129;-88
2022/09/15 08:37:48;;;;;;;15.70;5.75;;;16.90;99.90;;;;;;6225703;28;20046;-87
2022/09/15 08:40:58;;;;;;;17.52;5.75;;;16.90;99.90;;;;;;6226470;28;20451;-88
2022/09/15 08:44:07;;;;;;;17.80;5.40;;;16.80;99.90;;;;;;6226087;28;20056;-87
2022/09/15 08:47:12;;;;;;;0.00;0.00;;;16.80;99.90;;;;;;6223955;28;20049;-86
2022/09/15 08:50:26;;;;;;;0.00;0.00;;;16.70;99.90;;;;;;6224138;28;20045;-86
2022/09/15 08:53:32;;;;;;;0.00;0.00;;;16.40;99.90;;;;;;6223757;28;20053;-87
2022/09/15 08:56:36;;;;;;;0.00;0.00;;;16.30;99.90;;;;;;6224496;28;20443;-86
2022/09/15 08:59:38;;;;;;;2.25;1.08;;;16.20;99.90;;;;;;6224337;28;20478;-86
2022/09/15 09:03:18;;;;;;;0.00;0.00;;;16.20;99.90;;;;;;6223191;28;20069;-87
2022/09/15 09:06:28;;;;;;;0.00;0.00;;;16.30;99.90;;;;;;6239561;28;20144;-87
2022/09/15 09:09:37;;;;;;;0.00;0.00;;;16.30;99.90;;;;;;6273185;28;20049;-87
2022/09/15 09:12:54;;;;;;;0.00;0.00;;;16.40;99.90;;;;;;6273396;28;20075;-87
2022/09/15 09:16:09;;;;;;;0.00;0.00;;;16.40;99.90;;;;;;6273461;28;20049;-86
2022/09/15 09:19:30;;;;;;;0.00;0.00;;;16.50;99.90;;;;;;6273191;28;20052;-86
2022/09/15 09:22:35;;;;;;;0.00;0.00;;;16.50;99.90;;;;;;6206310;28;20726;-87
2022/09/15 09:25:37;;;;;;;0.00;0.00;;;16.50;99.90;;;;;;6199169;28;20572;-87
2022/09/15 09:28:47;;;;;;;0.00;0.00;;;16.60;99.90;;;;;;6200133;28;20061;-87
2022/09/15 09:31:53;;;;;;;0.00;0.00;;;16.70;99.90;;;;;;6200493;28;20092;-87
2022/09/15 09:35:01;;;;;;;0.13;0.08;;;16.50;99.90;;;;;;6214138;28;20176;-87
2022/09/15 09:38:03;;;;;;;0.00;0.00;;;16.60;99.90;;;;;;6252667;28;20048;-87
2022/09/15 09:41:08;;;;;;;0.08;0.08;;;16.40;99.90;;;;;;6273077;28;20040;-86
2022/09/15 09:44:14;;;;;;;0.00;0.00;;;16.40;99.90;;;;;;6272901;28;20421;-87
2022/09/15 09:47:16;;;;;;;0.00;0.00;;;16.30;99.90;;;;;;6272285;28;20045;-87
2022/09/15 09:50:35;;;;;;;0.00;0.00;;;16.30;99.90;;;;;;6272384;28;20044;-87
2022/09/15 09:53:37;;;;;;;0.00;0.00;;;16.30;99.90;;;;;;6272562;28;20052;-87
2022/09/15 09:56:39;;;;;;;0.00;0.00;;;16.30;99.90;;;;;;6272693;28;20048;-87
2022/09/15 09:59:45;;;;;;;0.00;0.00;;;16.50;99.90;;;;;;6272527;28;20122;-87
2022/09/15 10:03:13;;;;;;;0.00;0.00;;;16.50;99.90;;;;;;6272810;28;20047;-87
2022/09/15 10:06:27;;;;;;;0.00;0.00;;;16.50;99.90;;;;;;6249501;28;20128;-87
2022/09/15 10:09:48;;;;;;;;;;;;;;;;;;;;;
2022/09/15 10:13:28;;;;;;;0.00;0.00;;;16.40;99.90;;;;;;6192778;28;20090;-87
2022/09/15 10:17:18;;;;;;;0.00;0.00;;;16.20;99.90;;;;;;6197811;28;20057;-86
2022/09/15 10:20:31;;;;;;;0.00;0.00;;;16.30;99.90;;;;;;6221609;28;20057;-86
2022/09/15 10:23:44;;;;;;;;;;;;;;;;;;;;;
2022/09/15 10:26:46;;;;;;;0.00;0.00;;;16.10;99.90;;;;;;6223554;28;20061;-87
2022/09/15 11:24:00;;;;;;;;;;;;;;;;;;;;;
2022/09/15 13:53:41;;;;;;;1.90;1.02;;;27.10;84.40;;;;;;6185936;28;20460;-84
2022/09/15 14:04:20;;;;;;;2.35;1.15;;;26.20;83.00;;;;;;6180384;28;20043;-83
2022/09/15 14:24:11;;;;;;;2.58;1.20;;;25.80;87.70;;;;;;6040836;29;20152;-84
2022/09/15 14:27:21;;;;;;;2.45;1.00;;;26.00;87.10;;;;;;6060468;29;20052;-83
2022/09/15 14:30:25;;;;;;;3.00;1.20;;;26.10;85.10;;;;;;6160360;28;20054;-83
2022/09/15 14:33:33;;;;;;;3.33;0.80;;;26.40;84.80;;;;;;6203662;28;20030;-83
2022/09/15 14:36:35;;;;;;;2.25;0.70;;;26.30;83.00;;;;;;6206913;28;20078;-83
2022/09/15 14:39:39;;;;;;;2.25;0.60;;;26.30;84.20;;;;;;6204177;28;20070;-83
2022/09/15 14:42:43;;;;;;;2.15;0.60;;;26.30;82.80;;;;;;6210275;28;20113;-82
2022/09/15 14:45:45;;;;;;;3.55;2.00;;;26.30;81.30;;;;;;6181454;28;20054;-81
2022/09/15 14:48:46;;;;;;;1.95;1.00;;;25.90;82.20;;;;;;6176266;28;20394;-82
2022/09/15 14:51:52;;;;;;;3.60;1.23;;;25.70;83.50;;;;;;6153603;28;20408;-82
2022/09/15 14:54:58;;;;;;;2.10;0.93;;;25.60;83.50;;;;;;6153386;28;20053;-83
2022/09/15 14:58:05;;;;;;;6.70;0.85;;;25.50;84.10;;;;;;6173691;28;20111;-81
2022/09/15 15:01:14;;;;;;;4.15;0.70;;;25.40;82.10;;;;;;6175036;28;20531;-82
2022/09/15 15:04:22;;;;;;;1.77;0.80;;;25.30;83.60;;;;;;6180147;28;20050;-81
2022/09/15 15:07:27;;;;;;;3.60;1.17;;;25.10;81.30;;;;;;6190650;28;20051;-82
2022/09/15 15:10:30;;;;;;;4.57;1.25;;;24.80;83.90;;;;;;6181595;28;20065;-82
2022/09/15 15:13:34;;;;;;;3.45;0.65;;;24.60;83.60;;;;;;6180804;28;20046;-81
2022/09/15 15:16:36;;;;;;;5.57;1.42;;;24.20;85.80;;;;;;6179996;28;20046;-82
2022/09/15 15:19:41;;;;;;;4.82;1.15;;;24.00;86.00;;;;;;6178981;28;20052;-82
2022/09/15 15:22:43;;;;;;;3.20;0.95;;;23.70;86.10;;;;;;6180095;28;20053;-83
2022/09/15 15:25:46;;;;;;;1.65;1.02;;;23.40;85.90;;;;;;6183563;28;20051;-84
2022/09/15 15:28:50;;;;;;;3.00;1.05;;;23.10;87.40;;;;;;6183372;28;20055;-83
2022/09/15 15:31:51;;;;;;;1.15;0.80;;;22.70;88.30;;;;;;6183961;28;20086;-85
2022/09/15 15:34:58;;;;;;;3.55;1.30;;;22.50;90.40;;;;;;6185278;28;20042;-84
2022/09/15 15:38:06;;;;;;;6.40;1.30;;;22.30;90.30;;;;;;6198348;28;20054;-85
2022/09/15 15:41:14;;;;;;;3.22;1.00;;;22.20;90.60;;;;;;6206651;28;20561;-85
2022/09/15 15:44:27;;;;;;;7.68;1.08;;;22.20;91.50;;;;;;6209955;28;20050;-84
2022/09/15 15:47:31;;;;;;;2.85;0.80;;;22.20;91.50;;;;;;6212621;28;20133;-85
2022/09/15 15:50:33;;;;;;;2.10;0.90;;;22.20;91.50;;;;;;6210435;28;20050;-85
2022/09/15 15:53:35;;;;;;;3.95;1.30;;;22.20;91.80;;;;;;6210871;28;20436;-85
2022/09/15 15:56:37;;;;;;;3.67;1.05;;;22.20;92.00;;;;;;6212628;28;20054;-86
2022/09/15 15:59:40;;;;;;;1.60;0.93;;;22.20;92.30;;;;;;6210022;28;20046;-85
2022/09/15 16:02:42;;;;;;;2.05;0.80;;;22.20;92.20;;;;;;6209467;28;20053;-85
2022/09/15 16:05:46;;;;;;;1.92;1.05;;;22.10;92.20;;;;;;6199317;28;20054;-84
2022/09/15 16:08:48;;;;;;;5.13;0.93;;;22.00;92.20;;;;;;6215639;28;20061;-85
2022/09/15 16:11:50;;;;;;;1.85;0.90;;;21.90;92.80;;;;;;6204321;28;20623;-84
2022/09/15 16:14:53;;;;;;;7.55;2.05;;;21.80;92.50;;;;;;6204376;28;20055;-84
2022/09/15 16:17:55;;;;;;;3.10;1.33;;;21.80;93.10;;;;;;6205046;28;20060;-85
2022/09/15 16:20:56;;;;;;;5.40;1.15;;;21.70;92.80;;;;;;6209818;28;20057;-85
2022/09/15 16:23:58;;;;;;;1.90;1.20;;;21.70;93.60;;;;;;6202191;28;20054;-84
2022/09/15 16:27:17;;;;;;;3.25;1.02;;;21.70;94.30;;;;;;6204205;28;20046;-85
2022/09/15 16:30:49;;;;;;;2.03;1.10;;;21.60;94.20;;;;;;6180751;28;20117;-85
2022/09/15 16:33:51;;;;;;;4.10;1.00;;;21.60;94.90;;;;;;6222321;22;20037;-83
2022/09/15 16:36:53;;;;;;;1.77;1.17;;;21.60;94.90;;;;;;6248917;28;20117;-84
2022/09/15 16:39:54;;;;;;;2.67;1.08;;;21.60;95.50;;;;;;6247729;28;20041;-84
2022/09/15 16:42:56;;;;;;;4.38;2.25;;;21.50;95.30;;;;;;6255546;28;20117;-84
2022/09/15 16:45:59;;;;;;;5.95;1.48;;;21.40;95.20;;;;;;6233684;28;20464;-86
2022/09/15 16:49:01;;;;;;;5.45;1.15;;;21.30;95.70;;;;;;6228181;28;20419;-84
2022/09/15 16:52:03;;;;;;;8.82;1.73;;;21.30;96.40;;;;;;6215216;28;20038;-85
2022/09/15 16:55:16;;;;;;;9.80;1.42;;;21.20;96.50;;;;;;6205011;28;20045;-85
2022/09/15 16:58:20;;;;;;;1.85;0.93;;;21.10;97.00;;;;;;6214932;28;20117;-83
2022/09/15 17:01:24;;;;;;;2.88;1.20;;;21.10;96.80;;;;;;6200231;28;20061;-83
2022/09/15 17:04:25;;;;;;;2.75;1.00;;;21.00;97.30;;;;;;6205897;28;20046;-85
2022/09/15 17:07:27;;;;;;;5.07;1.45;;;20.90;96.70;;;;;;6223847;28;20045;-84
2022/09/15 17:10:29;;;;;;;2.67;1.40;;;20.80;97.20;;;;;;6224245;28;20060;-85
2022/09/15 17:13:33;;;;;;;2.45;1.08;;;20.60;97.20;;;;;;6200646;28;20046;-84
2022/09/15 17:16:36;;;;;;;2.85;1.45;;;20.60;97.90;;;;;;6200926;28;20057;-84
2022/09/15 17:19:38;;;;;;;2.63;1.00;;;20.50;98.10;;;;;;6199599;28;20061;-85
2022/09/15 17:22:39;;;;;;;6.00;1.42;;;20.30;98.00;;;;;;6199942;28;20054;-84
2022/09/15 17:25:47;;;;;;;2.90;1.27;;;20.40;98.50;;;;;;6200607;28;20393;-81
2022/09/15 17:28:50;;;;;;;;;;;20.30;98.60;;;;;;6199788;28;20058;-82
2022/09/15 17:31:53;;;;;;;4.53;1.23;;;20.30;99.30;;;;;;6199694;28;19922;-82
2022/09/15 17:34:55;;;;;;;3.72;1.60;;;20.30;98.60;;;;;;6203501;28;20065;-82
2022/09/15 17:37:56;;;;;;;2.33;1.63;;;20.10;99.20;;;;;;6224813;28;20060;-83
2022/09/15 17:40:58;;;;;;;8.00;1.58;;;20.00;99.40;;;;;;6224895;28;20057;-83
2022/09/15 17:44:00;;;;;;;3.78;1.60;;;19.80;99.10;;;;;;6216950;28;20053;-82
2022/09/15 17:47:03;;;;;;;3.05;1.10;;;19.80;99.20;;;;;;6203914;28;20050;-82
2022/09/15 17:50:06;;;;;;;3.10;1.60;;;19.70;99.90;;;;;;6205650;28;20057;-83
2022/09/15 17:53:12;;;;;;;3.17;1.23;;;19.70;99.90;;;;;;6219526;28;20056;-83
2022/09/15 17:56:14;;;;;;;2.33;1.40;;;19.60;99.90;;;;;;6200728;28;20119;-80
2022/09/15 17:59:15;;;;;;;2.35;1.60;;;19.50;99.90;;;;;;6199450;28;20057;-82
2022/09/15 18:02:20;;;;;;;2.25;1.15;;;19.40;99.90;;;;;;6200541;28;20061;-83
2022/09/15 18:05:24;;;;;;;2.22;1.60;;;19.30;99.90;;;;;;6200232;28;20038;-82
2022/09/15 18:08:27;;;;;;;12.98;1.75;;;19.10;99.90;;;;;;6192890;28;20050;-84
2022/09/15 18:11:29;;;;;;;5.25;1.42;;;19.20;99.90;;;;;;6199988;28;20195;-83
2022/09/15 18:14:31;;;;;;;4.15;2.50;;;19.00;99.90;;;;;;6200212;28;20141;-82
2022/09/15 18:17:34;;;;;;;2.28;1.25;;;18.90;99.90;;;;;;6192130;28;20050;-83
2022/09/15 18:20:36;;;;;;;4.15;1.80;;;18.80;99.90;;;;;;6186851;28;20138;-84
2022/09/15 18:23:38;;;;;;;9.27;2.17;;;18.70;99.90;;;;;;6187106;28;20054;-84
2022/09/15 18:26:39;;;;;;;4.00;1.60;;;18.60;99.90;;;;;;6190409;28;20058;-83
2022/09/15 18:29:41;;;;;;;13.07;2.92;;;18.60;99.90;;;;;;6201081;28;20451;-83
2022/09/15 18:32:44;;;;;;;4.20;1.67;;;18.40;99.90;;;;;;6201750;28;20057;-84
2022/09/15 18:35:46;;;;;;;7.10;1.92;;;18.30;99.90;;;;;;6200625;28;20062;-84
2022/09/15 18:38:48;;;;;;;10.40;2.10;;;18.10;99.90;;;;;;6199525;28;20511;-85
2022/09/15 18:41:50;;;;;;;4.35;1.90;;;17.90;99.90;;;;;;6199300;28;20054;-84
2022/09/15 18:44:51;;;;;;;4.40;1.80;;;17.70;99.90;;;;;;6204389;28;20523;-84
2022/09/15 18:47:54;;;;;;;3.25;2.05;;;17.60;99.90;;;;;;6206857;28;20042;-85
2022/09/15 18:50:56;;;;;;;4.90;1.35;;;17.50;99.90;;;;;;6204764;28;20502;-83
2022/09/15 18:53:58;;;;;;;4.47;1.98;;;17.50;99.90;;;;;;6204943;28;20058;-83
2022/09/15 18:57:00;;;;;;;4.55;1.83;;;17.50;99.90;;;;;;6203899;28;20049;-84
2022/09/15 19:00:03;;;;;;;3.88;1.67;;;17.50;99.90;;;;;;6205366;28;20046;-84
2022/09/15 19:03:08;;;;;;;5.85;2.40;;;17.40;99.90;;;;;;6204262;28;20177;-84
2022/09/15 19:06:10;;;;;;;6.30;2.15;;;17.40;99.90;;;;;;6204689;28;20096;-84
2022/09/15 19:09:12;;;;;;;4.15;2.45;;;17.30;99.90;;;;;;6203871;28;20046;-84
2022/09/15 19:12:14;;;;;;;3.58;2.00;;;17.20;99.90;;;;;;6204756;28;20054;-84
2022/09/15 19:15:16;;;;;;;4.78;2.53;;;17.10;99.90;;;;;;6208042;28;20047;-84
2022/09/15 19:18:19;;;;;;;11.95;2.13;;;17.10;99.90;;;;;;6207642;28;20053;-84
2022/09/15 19:21:20;;;;;;;12.68;3.72;;;17.00;99.90;;;;;;6205753;28;20050;-84
2022/09/15 19:24:22;;;;;;;12.25;2.40;;;16.90;99.90;;;;;;6207919;28;20042;-84
2022/09/15 19:27:24;;;;;;;8.73;2.80;;;16.90;99.90;;;;;;6207306;28;20496;-84
2022/09/15 19:30:26;;;;;;;8.82;2.67;;;16.80;99.90;;;;;;6205355;28;20054;-84
2022/09/15 19:33:29;;;;;;;9.23;3.00;;;16.70;99.90;;;;;;6205344;28;20069;-83
2022/09/15 19:36:31;;;;;;;8.05;2.30;;;16.70;99.90;;;;;;6207144;28;20053;-83
2022/09/15 19:39:32;;;;;;;11.23;2.83;;;16.70;99.90;;;;;;6206728;28;20057;-84
2022/09/15 19:42:34;;;;;;;4.18;2.17;;;16.60;99.90;;;;;;6203948;28;20049;-84
2022/09/15 19:45:36;;;;;;;5.88;3.05;;;16.50;99.90;;;;;;6207441;28;20062;-84
2022/09/15 19:48:39;;;;;;;5.65;2.55;;;16.50;99.90;;;;;;6204052;28;20077;-83
2022/09/15 19:51:41;;;;;;;6.50;2.50;;;16.40;99.90;;;;;;6204248;28;20046;-84
2022/09/15 19:54:43;;;;;;;5.53;3.45;;;16.30;99.90;;;;;;6203277;28;20047;-84